createdAt,value
2022-08-27T18:30:03.328Z,96949.22
2022-08-27T18:32:33.257Z,96952.44
2022-08-27T18:35:10.563Z,96962.47
2022-08-27T18:37:40.347Z,96953.75
2022-08-27T18:40:11.836Z,96951.84
2022-08-27T18:42:42.710Z,96959.88
2022-08-27T18:45:23.081Z,96960.31
2022-08-27T18:47:54.495Z,96957.63
2022-08-27T18:50:25.278Z,96956.44
2022-08-27T18:52:57.563Z,96961.25
2022-08-27T18:55:28.713Z,96961.28
2022-08-27T18:57:58.616Z,96948.97
2022-08-27T19:00:28.471Z,96951.38
2022-08-27T19:02:58.281Z,96952.22
2022-08-27T19:05:29.989Z,96948.28
2022-08-27T19:08:01.063Z,96948.31
2022-08-27T19:10:30.783Z,96958.31
2022-08-27T19:13:00.469Z,96951.59
2022-08-27T19:15:30.243Z,96962.78
2022-08-27T19:18:03.055Z,96959.25
2022-08-27T19:20:33.834Z,96953.66
2022-08-27T19:23:03.696Z,96962.06
2022-08-27T19:25:33.522Z,96950.13
2022-08-27T19:28:03.718Z,96953.34
2022-08-27T19:30:33.461Z,96958.94
2022-08-27T19:33:03.259Z,96961.75
2022-08-27T19:35:34.395Z,96954.63
2022-08-27T19:38:04.684Z,96947.03
2022-08-27T19:40:38.438Z,96955.00
2022-08-27T19:43:08.535Z,96955.03
2022-08-27T19:45:40.451Z,96969.78
2022-08-27T19:48:12.642Z,96957.44
2022-08-27T19:50:43.237Z,96960.25
2022-08-27T19:53:13.404Z,96955.88
2022-08-27T19:55:46.210Z,96947.56
2022-08-27T19:58:17.319Z,96958.31
2022-08-27T20:00:47.964Z,96967.06
2022-08-27T20:03:17.903Z,96967.09
2022-08-27T20:05:50.683Z,96958.34
2022-08-27T20:08:21.021Z,96972.69
2022-08-27T20:10:51.422Z,96964.31
2022-08-27T20:13:21.535Z,96975.88
2022-08-27T20:15:52.835Z,96975.47
2022-08-27T20:18:24.036Z,96985.00
2022-08-27T20:20:53.805Z,96991.75
2022-08-27T20:23:25.052Z,96988.19
2022-08-27T20:25:59.155Z,96990.94
2022-08-27T20:28:39.782Z,96994.13
2022-08-27T20:31:10.681Z,96981.78
2022-08-27T20:33:40.786Z,96987.78
2022-08-27T20:36:11.379Z,96996.50
2022-08-27T20:38:41.417Z,96997.28
2022-08-27T20:41:11.244Z,97004.44
2022-08-27T20:43:40.926Z,96999.69
2022-08-27T20:46:11.307Z,96996.50
2022-08-27T20:48:41.055Z,96994.50
2022-08-27T20:51:11.452Z,96996.88
2022-08-27T20:53:41.217Z,96994.09
2022-08-27T20:56:11.257Z,96992.91
2022-08-27T20:58:53.398Z,96992.91
2022-08-27T21:01:23.743Z,96992.50
2022-08-27T21:03:54.439Z,96983.78
2022-08-27T21:06:26.527Z,96996.47
2022-08-27T21:08:56.821Z,96991.28
2022-08-27T21:11:26.911Z,96985.34
2022-08-27T21:13:56.900Z,96994.06
2022-08-27T21:16:28.296Z,96991.28
2022-08-27T21:18:58.294Z,97000.84
2022-08-27T21:21:27.985Z,97001.22
2022-08-27T21:23:58.245Z,96989.72
2022-08-27T21:26:27.982Z,96989.69
2022-08-27T21:28:57.695Z,96982.16
2022-08-27T21:31:28.159Z,96979.78
2022-08-27T21:33:58.215Z,96992.88
2022-08-27T21:36:27.864Z,96973.41
2022-08-27T21:38:57.654Z,96984.53
2022-08-27T21:41:27.417Z,96980.97
2022-08-27T21:43:57.818Z,96975.38
2022-08-27T21:46:27.513Z,96978.56
2022-08-27T21:48:59.122Z,96969.81
2022-08-27T21:51:29.086Z,96978.56
2022-08-27T21:54:00.413Z,96977.72
2022-08-27T21:56:30.763Z,96980.50
2022-08-27T21:59:00.525Z,96971.75
2022-08-27T22:01:30.306Z,96982.88
2022-08-27T22:03:59.964Z,96975.34
2022-08-27T22:06:29.718Z,96980.44
2022-08-27T22:08:59.441Z,96970.91
2022-08-27T22:11:30.632Z,96969.31
2022-08-27T22:14:01.159Z,96968.09
2022-08-27T22:16:31.030Z,96962.16
2022-08-27T22:19:00.769Z,96948.25
2022-08-27T22:21:30.459Z,96957.78
2022-08-27T22:24:00.199Z,96947.03
2022-08-27T22:26:30.257Z,96937.09
2022-08-27T22:28:59.939Z,96930.34
2022-08-27T22:31:31.289Z,96928.34
2022-08-27T22:34:02.850Z,96924.38
2022-08-27T22:36:32.635Z,96906.91
2022-08-27T22:39:03.705Z,96911.25
2022-08-27T22:41:34.084Z,96914.00
2022-08-27T22:44:04.575Z,96916.78
2022-08-27T22:46:35.663Z,96918.75
2022-08-27T22:49:05.503Z,96922.72
2022-08-27T22:51:35.210Z,96920.38
2022-08-27T22:54:04.940Z,96924.69
2022-08-27T22:56:34.677Z,96939.00
2022-08-27T22:59:07.346Z,96939.00
2022-08-27T23:01:38.780Z,96928.66
2022-08-27T23:04:09.255Z,96931.84
2022-08-27T23:06:39.238Z,96932.59
2022-08-27T23:09:09.138Z,96922.69
2022-08-27T23:11:39.056Z,96927.41
2022-08-27T23:14:08.750Z,96938.94
2022-08-27T23:16:38.602Z,96951.19
2022-08-27T23:19:08.258Z,96943.63
2022-08-27T23:21:38.565Z,96948.34
2022-08-27T23:24:08.328Z,96947.56
2022-08-27T23:26:50.629Z,96943.59
2022-08-27T23:29:22.690Z,96940.41
2022-08-27T23:31:53.965Z,96957.44
2022-08-27T23:34:23.920Z,96955.81
2022-08-27T23:36:53.641Z,96952.22
2022-08-27T23:39:23.377Z,96963.28
2022-08-27T23:41:53.142Z,96956.16
2022-08-27T23:44:22.865Z,96957.34
2022-08-27T23:46:52.565Z,96954.56
2022-08-27T23:49:22.274Z,96957.75
2022-08-27T23:51:51.971Z,96957.72
2022-08-27T23:54:21.855Z,96956.94
2022-08-27T23:56:51.538Z,96960.91
2022-08-27T23:59:21.255Z,96965.66
